Flight Track Log - Related Links

Times and Time Zones

All times are in EDT time to prevent confusion due to time zone crossing. See the CTL18 flight status page for this flight to view local times or setup timezone preferences in your user account.

Time Position Orientation Groundspeed Altitude Reporting Facility
EDT Latitude Longitude Course Direction KTS MPH feet Rate Location/Type
Wed 10:05:21 PM 41.5792 -81.7072 339° North 175 201 2,200  Level Cleveland Center
Wed 10:06:15 PM 41.5975 -81.7633 294° West 180 207 2,700 574 Climbing Cleveland Center
Wed 10:07:16 PM 41.6156 -81.8247 291° West 179 206 3,300 645 Climbing Cleveland Center
Wed 10:08:16 PM 41.6358 -81.8833 295° West 170 196 4,000 397 Climbing Cleveland Center
Wed 10:09:17 PM 41.6539 -81.9422 292° West 169 194 4,100 49 Climbing Cleveland Center
Wed 10:10:18 PM 41.6717 -82.0064 290° West 172 198 4,100 -50 Level Cleveland Center
Wed 10:11:18 PM 41.6897 -82.0625 293° West 168 193 4,000 -50 Descending Cleveland Center
Wed 10:12:19 PM 41.7078 -82.1183 293° West 168 193 4,000  Level Cleveland Center
Wed 10:13:19 PM 41.7217 -82.1772 288° West 165 190 4,000  Level Cleveland Center
Wed 10:14:20 PM 41.7394 -82.2361 292° West 166 191 4,000  Level Cleveland Center
Wed 10:15:21 PM 41.7533 -82.2950 288° West 166 191 4,000  Level Cleveland Center
Wed 10:16:21 PM 41.7692 -82.3511 291° West 166 191 4,000  Level Cleveland Center
Wed 10:17:22 PM 41.7828 -82.4153 286° West 168 193 4,000  Level Cleveland Center
Wed 10:17:40 PM 41.7908 -82.4294 307° West 168 193 4,000  Level Cleveland Center
Wed 10:18:16 PM 41.8047 -82.4661 297° West 171 197 4,000 -175 Level Cleveland Center
Wed 10:19:23 PM 41.8225 -82.5364 289° West 187 215 3,700 -248 Descending Cleveland Center
Wed 10:20:17 PM 41.8381 -82.5981 289° West 187 215 3,500 -313 Descending Cleveland Center
Wed 10:21:18 PM 41.8661 -82.6606 301° West 200 230 3,100 -234 Descending Cleveland Center
Wed 10:22:25 PM 41.9175 -82.7039 328° Northwest 199 229 3,000 -47 Descending Cleveland Center
Wed 10:23:26 PM 41.9625 -82.7444 326° Northwest 194 223 3,000 55 Level Cleveland Center
Wed 10:24:14 PM 41.9975 -82.7736 328° Northwest 191 220 3,100 58 Climbing Cleveland Center
Wed 10:25:09 PM 42.0406 -82.8114 327° Northwest 194 223 3,100 -52 Level Cleveland Center
Wed 10:26:09 PM 42.0856 -82.8439 332° Northwest 187 215 3,000  Descending Cleveland Center
Wed 10:27:22 PM 42.1433 -82.8850 332° Northwest 188 216 3,100 45 Climbing Cleveland Center
Wed 10:28:23 PM 42.1906 -82.9206 331° Northwest 195 224 3,100  Level Cleveland Center
Wed 10:29:30 PM 42.2417 -82.9589 331° Northwest 194 223 3,100  Level Cleveland Center
Wed 10:31:19 PM 42.3278 -83.0267 330° Northwest 194 223 3,100 -36 Level Cleveland Center
Wed 10:32:19 PM 42.3772 -83.0567 336° Northwest 190 219 3,000 -50 Descending Cleveland Center
Wed 10:33:20 PM 42.4250 -83.0669 351° North 179 206 3,000 49 Level Cleveland Center
Wed 10:34:21 PM 42.4744 -83.0942 338° Northwest 186 214 3,100  Climbing Cleveland Center
Wed 10:35:27 PM 42.5236 -83.1356 328° Northwest 189 217 3,000 -93 Descending Cleveland Center
Wed 10:37:00 PM 42.5693 -83.2407 301° West  Level FlightAware Approximate
Wed 10:37:35 PM 42.5983 -83.2375 301° West 190 219 2,800  Level Cleveland Center
Wed 10:38:24 PM 42.6161 -83.2889 295° West 188 216 2,600 -298 Descending Cleveland Center
Wed 10:39:36 PM 42.6583 -83.3528 312° West 170 196 2,200 -545 Descending Cleveland Center
Wed 10:40:25 PM 42.6656 -83.3900 285° West 134 154 1,500 -857 Descending Cleveland Center
Wed 10:42:00 PM 42.6500 -83.4167 304° West  Level FlightAware Approximate
Wed 10:49:00 PM 42.6656 -83.4205 304° West  Level Estimated

Login

Don't have an account? Register now (free) for customized features, flight alerts, and more!